createdAt,value
2023-02-12T00:00:09.236Z,30.58
2023-02-12T00:02:36.381Z,23.08
2023-02-12T00:05:03.787Z,27.77
2023-02-12T00:07:31.626Z,23.55
2023-02-12T00:09:58.452Z,24.48
2023-02-12T00:12:25.790Z,25.90
2023-02-12T00:14:52.667Z,25.67
2023-02-12T00:17:19.570Z,25.88
2023-02-12T00:19:48.812Z,25.52
2023-02-12T00:22:15.686Z,24.48
2023-02-12T00:24:42.499Z,22.30
2023-02-12T00:27:09.715Z,18.83
2023-02-12T00:29:37.697Z,22.63
2023-02-12T00:32:04.542Z,28.63
2023-02-12T00:34:31.893Z,23.77
2023-02-12T00:36:58.862Z,27.27
2023-02-12T00:39:25.820Z,30.13
2023-02-12T00:41:53.269Z,25.30
2023-02-12T00:44:20.192Z,28.15
2023-02-12T00:46:47.331Z,25.92
2023-02-12T00:49:14.846Z,29.52
2023-02-12T00:51:42.001Z,33.83
2023-02-12T00:54:08.863Z,26.33
2023-02-12T00:56:35.952Z,25.20
2023-02-12T00:59:03.223Z,22.88
2023-02-12T01:01:30.091Z,31.20
2023-02-12T01:03:57.302Z,30.25
2023-02-12T01:06:24.264Z,29.05
2023-02-12T01:08:52.366Z,35.88
2023-02-12T01:11:20.149Z,33.58
2023-02-12T01:13:47.160Z,31.65
2023-02-12T01:16:24.994Z,34.83
2023-02-12T01:18:55.957Z,25.98
2023-02-12T01:21:27.003Z,31.02
2023-02-12T01:23:53.913Z,28.58
2023-02-12T01:26:21.965Z,28.55
2023-02-12T01:28:51.607Z,31.08
2023-02-12T01:31:22.818Z,33.53
2023-02-12T01:33:55.744Z,25.38
2023-02-12T01:36:23.392Z,28.65
2023-02-12T01:38:50.781Z,27.35
2023-02-12T01:41:25.439Z,23.67
2023-02-12T01:44:18.414Z,25.83
2023-02-12T01:46:48.261Z,26.42
2023-02-12T01:49:24.724Z,24.20
2023-02-12T01:51:56.439Z,27.23
2023-02-12T01:54:26.057Z,27.42
2023-02-12T01:56:53.567Z,23.50
2023-02-12T01:59:21.383Z,24.25
2023-02-12T02:01:48.634Z,24.67
2023-02-12T02:04:20.078Z,28.73
2023-02-12T02:06:54.086Z,19.95
2023-02-12T02:09:21.155Z,13.60
2023-02-12T02:12:06.465Z,14.07
2023-02-12T02:14:33.979Z,10.98
2023-02-12T02:17:03.832Z,12.15
2023-02-12T02:20:09.572Z,11.35
2023-02-12T02:22:39.454Z,15.15
2023-02-12T02:25:26.610Z,7.88
2023-02-12T02:28:09.940Z,9.90
2023-02-12T02:31:16.538Z,9.43
2023-02-12T02:33:49.562Z,10.10
2023-02-12T02:36:28.313Z,8.05
2023-02-12T02:39:23.669Z,10.57
2023-02-12T02:42:08.414Z,11.50
2023-02-12T02:45:05.831Z,11.57
2023-02-12T02:47:40.153Z,11.60
2023-02-12T02:50:13.029Z,20.88
2023-02-12T02:52:53.041Z,21.80
2023-02-12T02:55:23.573Z,22.58
2023-02-12T02:58:04.083Z,21.20
2023-02-12T03:00:45.042Z,21.00
2023-02-12T03:03:30.609Z,19.45
2023-02-12T03:06:09.712Z,21.55
2023-02-12T03:08:42.448Z,23.00
2023-02-12T03:11:19.687Z,18.27
2023-02-12T03:13:58.031Z,17.10
2023-02-12T03:16:40.669Z,21.65
2023-02-12T03:19:15.023Z,20.50
2023-02-12T03:21:47.329Z,20.08
2023-02-12T03:24:33.097Z,23.88
2023-02-12T03:27:15.137Z,19.90
2023-02-12T03:29:41.983Z,16.15
2023-02-12T03:32:23.154Z,17.67
2023-02-12T03:35:07.657Z,25.02
2023-02-12T03:37:39.764Z,27.05
2023-02-12T03:40:31.572Z,22.27
2023-02-12T03:43:17.306Z,27.08
2023-02-12T03:45:53.049Z,26.90
2023-02-12T03:48:45.319Z,21.02
2023-02-12T03:51:23.686Z,18.23
2023-02-12T03:53:50.892Z,18.85
2023-02-12T03:56:52.448Z,19.77
2023-02-12T03:59:21.543Z,17.15
2023-02-12T04:01:50.413Z,21.08
2023-02-12T04:04:17.921Z,17.17
2023-02-12T04:06:48.308Z,27.95
2023-02-12T04:09:15.901Z,18.92
2023-02-12T04:11:42.710Z,33.25
2023-02-12T04:14:15.534Z,17.40
2023-02-12T04:17:21.545Z,23.15
2023-02-12T04:20:08.843Z,30.23
2023-02-12T04:22:54.244Z,31.83
2023-02-12T04:25:52.966Z,23.30
2023-02-12T04:28:35.618Z,31.80
2023-02-12T04:31:16.217Z,14.20
2023-02-12T04:33:50.093Z,20.00
2023-02-12T04:36:25.530Z,22.95
2023-02-12T04:38:58.025Z,23.92
2023-02-12T04:41:26.092Z,20.08
2023-02-12T04:43:52.925Z,25.48
2023-02-12T04:46:19.869Z,27.90
2023-02-12T04:48:56.578Z,31.15
2023-02-12T04:51:23.478Z,26.77
2023-02-12T04:53:50.732Z,21.83
2023-02-12T04:56:18.140Z,12.07
2023-02-12T04:58:45.131Z,9.30
2023-02-12T05:01:12.069Z,10.10
2023-02-12T05:03:38.983Z,12.57
2023-02-12T05:06:08.783Z,8.98
2023-02-12T05:08:36.343Z,8.60
2023-02-12T05:11:11.236Z,8.85
2023-02-12T05:13:38.610Z,18.30
2023-02-12T05:16:06.696Z,28.90
2023-02-12T05:18:35.282Z,29.08
2023-02-12T05:21:04.930Z,26.13
2023-02-12T05:23:36.129Z,22.05
2023-02-12T05:26:09.165Z,18.83
2023-02-12T05:28:36.617Z,18.75
2023-02-12T05:31:06.761Z,24.58
2023-02-12T05:33:39.041Z,23.83
2023-02-12T05:36:12.980Z,20.63
2023-02-12T05:38:40.341Z,25.75
2023-02-12T05:41:10.221Z,22.73
2023-02-12T05:43:39.432Z,24.02
2023-02-12T05:46:07.520Z,22.63
2023-02-12T05:48:35.203Z,25.15
2023-02-12T05:51:04.221Z,19.17
2023-02-12T05:53:31.923Z,21.35
2023-02-12T05:56:22.358Z,22.73
2023-02-12T05:58:54.310Z,25.80
2023-02-12T06:01:28.504Z,24.55
2023-02-12T06:03:55.672Z,25.33
2023-02-12T06:06:22.801Z,22.75
2023-02-12T06:08:50.134Z,25.95
2023-02-12T06:11:26.278Z,27.15
2023-02-12T06:14:10.538Z,31.08
2023-02-12T06:16:42.348Z,46.08
2023-02-12T06:19:15.850Z,31.75
2023-02-12T06:21:46.358Z,31.85
2023-02-12T06:24:35.828Z,28.25
2023-02-12T06:27:05.083Z,34.63
2023-02-12T06:29:33.748Z,47.13
2023-02-12T06:32:03.884Z,37.47
2023-02-12T06:34:30.919Z,38.75
2023-02-12T06:36:58.003Z,36.50
2023-02-12T06:39:25.094Z,42.60
2023-02-12T06:41:52.087Z,44.88
2023-02-12T06:44:19.277Z,33.60
2023-02-12T06:46:46.209Z,37.70
2023-02-12T06:49:14.765Z,37.40
2023-02-12T06:51:42.147Z,29.27
2023-02-12T06:54:14.528Z,30.08
2023-02-12T06:56:41.557Z,27.30
2023-02-12T06:59:15.770Z,28.55
2023-02-12T07:01:44.173Z,30.98
2023-02-12T07:04:14.982Z,24.70
2023-02-12T07:06:43.320Z,34.20
2023-02-12T07:09:10.297Z,29.55
2023-02-12T07:11:38.587Z,34.55
2023-02-12T07:14:07.008Z,35.47
2023-02-12T07:16:36.340Z,32.13
2023-02-12T07:19:03.378Z,37.42
2023-02-12T07:21:30.989Z,35.90
2023-02-12T07:23:57.948Z,36.92
2023-02-12T07:26:24.846Z,39.42
2023-02-12T07:28:52.033Z,29.90
2023-02-12T07:31:22.922Z,35.38
2023-02-12T07:33:54.110Z,38.75
2023-02-12T07:36:21.598Z,31.02
2023-02-12T07:38:48.625Z,46.30
2023-02-12T07:41:21.892Z,44.28
2023-02-12T07:43:50.043Z,37.85
2023-02-12T07:46:19.950Z,45.30
2023-02-12T07:48:48.364Z,41.67
2023-02-12T07:51:29.438Z,37.28
2023-02-12T07:53:56.656Z,32.55
2023-02-12T07:56:26.146Z,24.95
2023-02-12T07:58:53.893Z,17.15
2023-02-12T08:01:23.354Z,23.52
2023-02-12T08:03:51.408Z,18.33
2023-02-12T08:06:25.944Z,15.55
2023-02-12T08:08:56.621Z,19.08
2023-02-12T08:11:25.404Z,16.95
2023-02-12T08:13:52.761Z,18.30
2023-02-12T08:16:21.780Z,20.35
2023-02-12T08:18:49.920Z,30.52
2023-02-12T08:21:19.130Z,27.67
2023-02-12T08:23:46.642Z,29.48
2023-02-12T08:26:29.048Z,25.60
2023-02-12T08:29:02.522Z,27.20
2023-02-12T08:31:32.255Z,35.55
2023-02-12T08:33:59.899Z,22.38
2023-02-12T08:36:28.847Z,26.42
2023-02-12T08:38:59.541Z,23.48
2023-02-12T08:41:28.694Z,25.38
2023-02-12T08:44:00.740Z,31.38
2023-02-12T08:46:30.326Z,20.55
2023-02-12T08:48:59.715Z,24.80
2023-02-12T08:51:31.062Z,32.05
2023-02-12T08:54:00.525Z,33.47
2023-02-12T08:56:30.007Z,36.38
2023-02-12T08:59:01.962Z,34.60
2023-02-12T09:01:30.910Z,21.15
2023-02-12T09:03:57.739Z,32.58
2023-02-12T09:06:26.493Z,20.40
2023-02-12T09:08:54.614Z,23.98
2023-02-12T09:11:30.874Z,30.35
2023-02-12T09:14:05.805Z,22.73
2023-02-12T09:16:35.565Z,21.75
2023-02-12T09:19:03.951Z,19.90
2023-02-12T09:21:31.242Z,16.55
2023-02-12T09:23:58.481Z,42.33
2023-02-12T09:26:26.310Z,28.10
2023-02-12T09:28:54.081Z,16.95
2023-02-12T09:31:26.801Z,16.50
2023-02-12T09:33:56.339Z,15.80
2023-02-12T09:36:23.158Z,14.95
2023-02-12T09:38:50.483Z,13.00
2023-02-12T09:41:42.788Z,14.50
2023-02-12T09:44:19.885Z,16.20
2023-02-12T09:46:58.997Z,14.32
2023-02-12T09:49:29.167Z,15.25
2023-02-12T09:51:57.086Z,16.33
2023-02-12T09:54:31.525Z,14.70
2023-02-12T09:57:11.012Z,13.27
2023-02-12T09:59:44.145Z,15.70
2023-02-12T10:02:22.249Z,18.35
2023-02-12T10:05:00.787Z,17.42
2023-02-12T10:07:47.234Z,17.17
2023-02-12T10:10:36.069Z,16.90
2023-02-12T10:13:20.474Z,20.00
2023-02-12T10:16:08.304Z,18.08
2023-02-12T10:18:41.295Z,18.33
2023-02-12T10:21:59.607Z,14.48
2023-02-12T10:24:55.630Z,15.25
2023-02-12T10:27:40.505Z,16.58
2023-02-12T10:34:09.554Z,15.60
2023-02-12T10:37:00.197Z,19.58
2023-02-12T10:43:28.413Z,16.80
2023-02-12T10:46:03.567Z,17.25
2023-02-12T10:48:42.924Z,18.67
2023-02-12T10:54:52.538Z,17.60
2023-02-12T10:57:33.199Z,16.73
2023-02-12T11:00:34.783Z,23.63
2023-02-12T11:03:36.528Z,24.40
2023-02-12T11:16:18.302Z,21.13
2023-02-12T11:48:32.566Z,25.48
2023-02-12T11:51:29.529Z,27.25
2023-02-12T11:53:59.808Z,21.05
2023-02-12T12:02:22.024Z,23.10
2023-02-12T12:04:52.442Z,19.40
2023-02-12T12:07:35.589Z,20.92
2023-02-12T12:10:12.695Z,17.60
2023-02-12T12:12:56.904Z,19.88
2023-02-12T12:15:48.850Z,19.73
2023-02-12T12:19:02.241Z,17.02
2023-02-12T12:21:54.656Z,17.60
2023-02-12T12:24:34.559Z,20.83
2023-02-12T12:27:24.621Z,20.60
2023-02-12T12:30:06.404Z,21.45
2023-02-12T12:32:48.507Z,16.63
2023-02-12T12:35:20.263Z,24.10
2023-02-12T12:38:33.675Z,26.70
2023-02-12T12:41:26.676Z,17.50
2023-02-12T12:43:56.570Z,22.98
2023-02-12T12:46:45.588Z,19.13
2023-02-12T12:49:22.412Z,22.80
2023-02-12T12:52:03.714Z,19.65
2023-02-12T12:54:45.536Z,17.80
2023-02-12T12:57:29.972Z,18.73
2023-02-12T13:00:13.043Z,17.88
2023-02-12T13:03:05.626Z,18.25
2023-02-12T13:05:55.927Z,22.95
2023-02-12T13:08:35.659Z,17.45
2023-02-12T13:11:36.058Z,19.73
2023-02-12T13:14:40.832Z,33.33
2023-02-12T13:17:25.480Z,21.08
2023-02-12T13:20:03.876Z,20.17
2023-02-12T13:23:01.654Z,19.35
2023-02-12T13:25:49.061Z,22.90
2023-02-12T13:28:36.300Z,21.90
2023-02-12T13:31:30.150Z,21.40
2023-02-12T13:34:30.853Z,20.27
2023-02-12T13:52:48.348Z,26.50
2023-02-12T13:56:34.011Z,21.08
2023-02-12T14:01:49.778Z,19.98
2023-02-12T14:04:20.210Z,20.80
2023-02-12T14:07:11.826Z,18.95
2023-02-12T14:09:42.765Z,23.42
2023-02-12T14:12:18.879Z,23.80
2023-02-12T14:15:01.382Z,21.52
2023-02-12T14:30:03.792Z,22.58
2023-02-12T14:32:57.674Z,24.77
2023-02-12T14:35:48.266Z,17.15
2023-02-12T14:38:16.388Z,20.25
2023-02-12T14:40:51.008Z,22.58
2023-02-12T14:44:02.174Z,25.80
2023-02-12T14:46:35.274Z,26.08
2023-02-12T14:49:19.847Z,26.40
2023-02-12T14:57:47.940Z,30.90
2023-02-12T15:00:22.195Z,27.42
2023-02-12T15:12:32.887Z,25.40
2023-02-12T15:15:13.516Z,24.40
2023-02-12T15:17:45.095Z,22.88
2023-02-12T15:20:23.049Z,29.40
2023-02-12T15:22:53.117Z,29.80
2023-02-12T15:25:25.663Z,24.73
2023-02-12T15:28:00.789Z,27.75
2023-02-12T15:38:36.542Z,28.17
2023-02-12T15:41:27.099Z,32.03
2023-02-12T15:44:05.890Z,28.52
2023-02-12T15:46:35.573Z,30.08
2023-02-12T15:49:23.851Z,27.30
2023-02-12T15:51:51.066Z,26.13
2023-02-12T15:54:20.871Z,27.88
2023-02-12T15:56:54.621Z,25.17
2023-02-12T15:59:24.916Z,28.58
2023-02-12T16:02:05.082Z,29.35
2023-02-12T16:04:42.749Z,36.75
2023-02-12T16:07:13.819Z,31.25
2023-02-12T16:09:47.927Z,24.55
2023-02-12T16:12:20.654Z,26.17
2023-02-12T16:15:06.289Z,31.92
2023-02-12T16:17:44.465Z,31.40
2023-02-12T16:20:20.573Z,24.85
2023-02-12T16:22:51.487Z,26.65
2023-02-12T16:25:29.102Z,30.52
2023-02-12T16:28:28.067Z,26.20
2023-02-12T16:31:18.852Z,26.15
2023-02-12T16:34:08.630Z,25.00
2023-02-12T16:36:37.892Z,29.08
2023-02-12T16:39:06.762Z,30.38
2023-02-12T16:41:35.741Z,25.75
2023-02-12T16:44:02.844Z,26.67
2023-02-12T16:46:35.590Z,29.33
2023-02-12T16:49:02.843Z,30.20
2023-02-12T16:51:37.348Z,25.80
2023-02-12T16:54:24.387Z,31.77
2023-02-12T16:56:51.989Z,29.35
2023-02-12T16:59:19.082Z,30.13
2023-02-12T17:02:10.672Z,31.92
2023-02-12T17:04:37.724Z,26.25
2023-02-12T17:07:04.525Z,23.23
2023-02-12T17:09:31.549Z,31.13
2023-02-12T17:11:58.388Z,23.23
2023-02-12T17:14:27.221Z,24.67
2023-02-12T17:16:54.096Z,25.95
2023-02-12T17:19:22.029Z,27.67
2023-02-12T17:21:49.575Z,29.15
2023-02-12T17:24:26.339Z,26.92
2023-02-12T17:26:54.318Z,21.15
2023-02-12T17:29:23.538Z,24.98
2023-02-12T17:31:54.732Z,22.83
2023-02-12T17:34:26.109Z,26.05
2023-02-12T17:36:57.832Z,25.48
2023-02-12T17:39:24.674Z,29.00
2023-02-12T17:41:54.503Z,26.80
2023-02-12T17:44:35.773Z,29.00
2023-02-12T17:47:02.804Z,32.90
2023-02-12T17:49:31.477Z,28.92
2023-02-12T17:52:01.614Z,31.77
2023-02-12T17:54:28.561Z,30.35
2023-02-12T17:56:58.363Z,26.98
2023-02-12T17:59:27.665Z,30.77
2023-02-12T18:01:54.439Z,28.45
2023-02-12T18:04:21.555Z,26.17
2023-02-12T18:06:48.993Z,30.17
2023-02-12T18:09:21.307Z,29.83
2023-02-12T18:11:52.400Z,32.55
2023-02-12T18:14:22.336Z,31.80
2023-02-12T18:17:05.876Z,28.33
2023-02-12T18:19:37.292Z,29.70
2023-02-12T18:22:11.570Z,28.23
2023-02-12T18:24:53.316Z,27.85
2023-02-12T18:27:20.760Z,36.13
2023-02-12T18:29:48.966Z,31.05
2023-02-12T18:32:16.579Z,35.05
2023-02-12T18:34:44.321Z,30.45
2023-02-12T18:38:11.222Z,26.85
2023-02-12T18:40:40.639Z,32.13
2023-02-12T18:43:10.024Z,31.45
2023-02-12T18:45:39.592Z,34.75
2023-02-12T18:48:09.615Z,30.45
2023-02-12T18:50:37.303Z,35.92
2023-02-12T18:53:04.751Z,31.33
2023-02-12T18:55:31.703Z,38.15
2023-02-12T18:57:58.564Z,47.72
2023-02-12T19:00:30.966Z,36.55
2023-02-12T19:02:58.520Z,34.05
2023-02-12T19:05:26.647Z,35.47
2023-02-12T19:08:11.486Z,37.90
2023-02-12T19:10:42.920Z,30.92
2023-02-12T19:13:10.557Z,36.72
2023-02-12T19:15:41.210Z,35.67
2023-02-12T19:18:08.213Z,38.33
2023-02-12T19:20:35.161Z,32.47
2023-02-12T19:23:04.926Z,30.65
2023-02-12T19:25:34.444Z,37.50
2023-02-12T19:28:01.364Z,43.55
2023-02-12T19:30:28.505Z,40.25
2023-02-12T19:32:55.554Z,52.28
2023-02-12T19:35:22.558Z,39.72
2023-02-12T19:37:50.708Z,39.40
2023-02-12T19:40:17.659Z,38.85
2023-02-12T19:42:47.262Z,49.88
2023-02-12T19:45:14.538Z,42.30
2023-02-12T19:47:41.551Z,86.65
2023-02-12T19:50:09.559Z,70.60
2023-02-12T19:52:38.141Z,52.22
2023-02-12T19:55:05.191Z,56.78
2023-02-12T19:57:32.035Z,42.55
2023-02-12T19:59:59.258Z,56.38
2023-02-12T20:02:26.362Z,50.08
2023-02-12T20:04:53.344Z,43.03
2023-02-12T20:07:20.568Z,37.17
2023-02-12T20:09:52.430Z,46.42
2023-02-12T20:12:19.344Z,35.38
2023-02-12T20:14:46.861Z,39.15
2023-02-12T20:17:14.423Z,34.58
2023-02-12T20:19:41.342Z,33.08
2023-02-12T20:22:09.299Z,33.17
2023-02-12T20:24:36.348Z,36.28
2023-02-12T20:27:03.965Z,35.85
2023-02-12T20:29:31.830Z,30.38
2023-02-12T20:31:58.911Z,36.45
2023-02-12T20:34:26.560Z,36.47
2023-02-12T20:36:54.515Z,34.63
2023-02-12T20:39:21.710Z,32.92
2023-02-12T20:41:49.087Z,28.23
2023-02-12T20:44:20.277Z,40.88
2023-02-12T20:46:56.582Z,40.60
2023-02-12T20:49:27.707Z,35.45
2023-02-12T20:54:48.064Z,48.03
2023-02-12T20:57:27.423Z,57.40
2023-02-12T20:59:56.379Z,50.13
2023-02-12T21:02:23.635Z,177.77
2023-02-12T21:04:56.621Z,68.78
2023-02-12T21:07:26.406Z,46.10
2023-02-12T21:09:54.295Z,62.17
2023-02-12T21:12:21.231Z,32.50
2023-02-12T21:14:48.475Z,32.80
2023-02-12T21:17:15.475Z,76.38
2023-02-12T21:19:45.223Z,97.72
2023-02-12T21:22:12.203Z,44.15
2023-02-12T21:24:39.491Z,46.03
2023-02-12T21:27:07.096Z,39.83
2023-02-12T21:29:34.116Z,41.55
2023-02-12T21:32:03.067Z,45.10
2023-02-12T21:34:35.349Z,37.97
2023-02-12T21:37:08.257Z,38.30
2023-02-12T21:39:36.072Z,44.55
2023-02-12T21:42:06.674Z,28.48
2023-02-12T21:44:40.978Z,43.28
2023-02-12T21:47:09.439Z,40.40
2023-02-12T21:49:42.664Z,46.58
2023-02-12T21:52:09.632Z,48.58
2023-02-12T21:54:36.613Z,35.30
2023-02-12T21:57:09.159Z,38.53
2023-02-12T21:59:35.980Z,30.60
2023-02-12T22:02:03.231Z,32.80
2023-02-12T22:04:30.676Z,28.45
2023-02-12T22:07:00.186Z,27.52
2023-02-12T22:09:27.439Z,29.30
2023-02-12T22:11:54.987Z,35.60
2023-02-12T22:14:23.120Z,28.73
2023-02-12T22:16:51.034Z,31.55
2023-02-12T22:19:18.107Z,33.50
2023-02-12T22:21:45.251Z,33.90
2023-02-12T22:24:15.582Z,32.30
2023-02-12T22:26:42.541Z,35.80
2023-02-12T22:29:11.808Z,35.70
2023-02-12T22:31:40.638Z,39.50
2023-02-12T22:34:14.015Z,34.00
2023-02-12T22:36:44.235Z,38.22
2023-02-12T22:39:15.804Z,33.85
2023-02-12T22:41:43.658Z,37.72
2023-02-12T22:44:13.427Z,35.53
2023-02-12T22:47:02.648Z,41.90
2023-02-12T22:49:29.897Z,38.72
2023-02-12T22:51:58.145Z,32.03
2023-02-12T22:54:26.207Z,32.63
2023-02-12T22:56:58.090Z,34.70
2023-02-12T22:59:25.590Z,26.92
2023-02-12T23:01:52.633Z,32.65
2023-02-12T23:04:28.805Z,26.05
2023-02-12T23:06:55.989Z,32.08
2023-02-12T23:09:25.560Z,33.38
2023-02-12T23:11:52.616Z,35.28
2023-02-12T23:14:25.820Z,31.77
2023-02-12T23:16:53.267Z,29.42
2023-02-12T23:19:22.437Z,27.88
2023-02-12T23:21:51.829Z,22.48
2023-02-12T23:24:19.037Z,28.33
2023-02-12T23:26:48.719Z,27.73
2023-02-12T23:29:18.866Z,30.15
2023-02-12T23:31:51.233Z,29.52
2023-02-12T23:34:18.526Z,26.00
2023-02-12T23:36:45.628Z,27.23
2023-02-12T23:39:13.576Z,31.60
2023-02-12T23:41:40.508Z,25.67
2023-02-12T23:44:09.831Z,27.73
2023-02-12T23:46:37.501Z,33.55
2023-02-12T23:49:04.939Z,37.58
2023-02-12T23:51:35.571Z,43.95
2023-02-12T23:54:05.220Z,25.73
2023-02-12T23:56:32.100Z,34.08
2023-02-12T23:58:58.990Z,41.55
